createdAt,value
2018-10-17T00:02:19.610Z,70.62
2018-10-17T00:04:47.829Z,70.90
2018-10-17T00:07:16.077Z,70.38
2018-10-17T00:09:44.191Z,71.32
2018-10-17T00:12:12.382Z,71.34
2018-10-17T00:14:40.687Z,71.32
2018-10-17T00:17:09.488Z,70.92
2018-10-17T00:19:37.842Z,71.38
2018-10-17T00:22:06.187Z,70.58
2018-10-17T00:24:34.362Z,71.79
2018-10-17T00:27:02.548Z,71.02
2018-10-17T00:29:30.719Z,70.83
2018-10-17T00:31:58.943Z,71.81
2018-10-17T00:34:27.151Z,70.93
2018-10-17T00:36:55.346Z,70.76
2018-10-17T00:39:23.519Z,71.56
2018-10-17T00:41:51.734Z,71.49
2018-10-17T00:44:19.986Z,71.36
2018-10-17T00:46:48.190Z,70.74
2018-10-17T00:49:16.435Z,70.45
2018-10-17T00:51:44.582Z,71.16
2018-10-17T00:54:12.830Z,70.56
2018-10-17T00:56:41.025Z,70.99
2018-10-17T00:59:10.527Z,71.37
2018-10-17T01:01:39.178Z,71.36
2018-10-17T01:04:07.613Z,70.93
2018-10-17T01:06:36.207Z,70.50
2018-10-17T01:09:06.958Z,70.85
2018-10-17T01:11:35.743Z,71.51
2018-10-17T01:14:04.210Z,70.83
2018-10-17T01:16:32.606Z,71.67
2018-10-17T01:19:01.170Z,70.58
2018-10-17T01:21:29.431Z,71.32
2018-10-17T01:23:57.615Z,70.94
2018-10-17T01:26:25.869Z,71.58
2018-10-17T01:28:54.009Z,71.09
2018-10-17T01:31:22.242Z,71.13
2018-10-17T01:33:50.415Z,71.38
2018-10-17T01:36:18.654Z,71.66
2018-10-17T01:38:46.839Z,71.80
2018-10-17T01:41:15.030Z,71.90
2018-10-17T01:43:43.216Z,72.27
2018-10-17T01:46:11.361Z,72.07
2018-10-17T01:48:39.611Z,72.64
2018-10-17T01:51:07.798Z,71.96
2018-10-17T01:53:35.978Z,72.39
2018-10-17T01:56:04.225Z,72.56
2018-10-17T01:58:32.526Z,71.75
2018-10-17T02:01:00.806Z,72.32
2018-10-17T02:03:28.990Z,72.23
2018-10-17T02:05:57.258Z,72.39
2018-10-17T02:08:25.473Z,72.52
2018-10-17T02:10:53.716Z,71.84
2018-10-17T02:13:22.590Z,72.36
2018-10-17T02:15:52.618Z,72.57
2018-10-17T02:18:20.955Z,71.28
2018-10-17T02:20:49.619Z,71.45
2018-10-17T02:23:17.829Z,71.93
2018-10-17T02:25:45.985Z,71.88
2018-10-17T02:28:14.218Z,72.03
2018-10-17T02:30:42.465Z,72.56
2018-10-17T02:33:10.643Z,71.87
2018-10-17T02:35:38.802Z,72.32
2018-10-17T02:38:07.039Z,72.31
2018-10-17T02:40:35.268Z,71.96
2018-10-17T02:43:03.669Z,71.66
2018-10-17T02:45:31.877Z,72.41
2018-10-17T02:48:00.072Z,72.05
2018-10-17T02:50:28.268Z,71.66
2018-10-17T02:52:56.553Z,71.51
2018-10-17T02:55:24.696Z,71.93
2018-10-17T02:57:53.007Z,72.02
2018-10-17T03:00:21.170Z,72.54
2018-10-17T03:02:49.436Z,71.82
2018-10-17T03:05:17.861Z,71.82
2018-10-17T03:07:45.940Z,71.48
2018-10-17T03:10:14.138Z,72.06
2018-10-17T03:12:42.295Z,71.46
2018-10-17T03:15:10.515Z,71.68
2018-10-17T03:17:38.710Z,71.45
2018-10-17T03:20:08.349Z,70.97
2018-10-17T03:22:36.531Z,71.16
2018-10-17T03:25:04.993Z,71.92
2018-10-17T03:27:33.166Z,71.45
2018-10-17T03:30:01.359Z,71.75
2018-10-17T03:32:29.546Z,71.78
2018-10-17T03:34:57.808Z,71.58
2018-10-17T03:37:25.923Z,71.82
2018-10-17T03:39:54.109Z,71.08
2018-10-17T03:42:22.278Z,72.36
2018-10-17T03:44:50.471Z,71.79
2018-10-17T03:47:18.770Z,71.75
2018-10-17T03:49:46.835Z,71.43
2018-10-17T03:52:14.952Z,71.13
2018-10-17T03:54:43.198Z,71.06
2018-10-17T03:57:11.390Z,70.93
2018-10-17T03:59:39.784Z,70.62
2018-10-17T04:02:07.788Z,71.13
2018-10-17T04:04:35.985Z,71.22
2018-10-17T04:07:04.242Z,72.19
2018-10-17T04:09:32.395Z,71.96
2018-10-17T04:12:00.551Z,71.63
2018-10-17T04:14:28.724Z,71.54
2018-10-17T04:16:56.914Z,72.42
2018-10-17T04:19:25.134Z,71.49
2018-10-17T04:21:53.327Z,72.34
2018-10-17T04:24:21.587Z,72.53
2018-10-17T04:26:49.819Z,72.08
2018-10-17T04:29:17.998Z,71.03
2018-10-17T04:31:46.188Z,71.18
2018-10-17T04:34:14.394Z,72.12
2018-10-17T04:36:42.567Z,71.72
2018-10-17T04:39:11.935Z,72.49
2018-10-17T04:41:40.642Z,71.94
2018-10-17T04:44:09.943Z,71.77
2018-10-17T04:46:38.127Z,71.75
2018-10-17T04:49:06.942Z,71.60
2018-10-17T04:51:35.274Z,72.21
2018-10-17T04:54:03.494Z,72.37
2018-10-17T04:56:31.694Z,71.73
2018-10-17T04:58:59.983Z,71.59
2018-10-17T05:01:34.571Z,72.09
2018-10-17T05:04:02.901Z,72.70
2018-10-17T05:06:31.113Z,72.41
2018-10-17T05:08:59.312Z,72.22
2018-10-17T05:11:27.480Z,72.41
2018-10-17T05:13:55.645Z,73.12
2018-10-17T05:16:24.175Z,72.26
2018-10-17T05:18:52.437Z,72.77
2018-10-17T05:21:20.660Z,73.21
2018-10-17T05:23:48.848Z,72.25
2018-10-17T05:26:17.048Z,73.34
2018-10-17T05:28:45.290Z,72.87
2018-10-17T05:31:13.565Z,72.38
2018-10-17T05:33:41.675Z,72.93
2018-10-17T05:36:10.168Z,72.34
2018-10-17T05:38:38.397Z,73.39
2018-10-17T05:41:06.679Z,72.94
2018-10-17T05:43:34.795Z,73.25
2018-10-17T05:46:03.002Z,73.66
2018-10-17T05:48:31.180Z,72.85
2018-10-17T05:50:59.429Z,73.60
2018-10-17T05:53:27.648Z,73.66
2018-10-17T05:55:55.858Z,73.02
2018-10-17T05:58:24.055Z,73.69
2018-10-17T06:00:52.252Z,72.86
2018-10-17T06:03:20.448Z,73.94
2018-10-17T06:05:48.651Z,74.22
2018-10-17T06:08:16.862Z,73.79
2018-10-17T06:10:45.064Z,73.25
2018-10-17T06:13:13.301Z,74.06
2018-10-17T06:15:41.522Z,73.42
2018-10-17T06:18:09.747Z,73.58
2018-10-17T06:20:38.460Z,74.43
2018-10-17T06:23:06.875Z,73.36
2018-10-17T06:25:35.302Z,73.42
2018-10-17T06:28:03.463Z,74.52
2018-10-17T06:30:31.694Z,73.78
2018-10-17T06:32:59.973Z,74.42
2018-10-17T06:35:28.162Z,74.40
2018-10-17T06:37:56.376Z,73.55
2018-10-17T06:40:24.536Z,74.45
2018-10-17T06:42:52.775Z,74.42
2018-10-17T06:45:21.016Z,73.55
2018-10-17T06:47:49.215Z,73.81
2018-10-17T06:50:17.418Z,73.78
2018-10-17T06:52:45.626Z,73.64
2018-10-17T06:55:13.929Z,74.42
2018-10-17T06:57:42.067Z,74.79
2018-10-17T07:00:11.007Z,74.73
2018-10-17T07:02:39.291Z,74.13
2018-10-17T07:05:08.272Z,74.22
2018-10-17T07:07:36.460Z,75.25
2018-10-17T07:10:04.743Z,73.99
2018-10-17T07:12:32.971Z,73.98
2018-10-17T07:15:01.194Z,74.77
2018-10-17T07:17:30.222Z,74.25
2018-10-17T07:19:58.384Z,74.44
2018-10-17T07:22:26.551Z,74.44
2018-10-17T07:24:54.836Z,74.88
2018-10-17T07:27:23.058Z,75.72
2018-10-17T07:29:51.510Z,75.29
2018-10-17T07:32:19.514Z,75.34
2018-10-17T07:34:47.691Z,75.52
2018-10-17T07:37:15.914Z,75.20
2018-10-17T07:39:44.103Z,75.30
2018-10-17T07:42:12.493Z,75.22
2018-10-17T07:44:40.614Z,75.46
2018-10-17T07:47:08.810Z,75.46
2018-10-17T07:49:37.115Z,75.83
2018-10-17T07:52:05.755Z,76.49
2018-10-17T07:54:33.954Z,76.29
2018-10-17T07:57:02.160Z,75.84
2018-10-17T07:59:30.380Z,75.54
2018-10-17T08:01:58.565Z,75.91
2018-10-17T08:04:26.730Z,75.53
2018-10-17T08:06:54.967Z,76.22
2018-10-17T08:09:23.229Z,75.25
2018-10-17T08:11:51.658Z,75.30
2018-10-17T08:14:20.281Z,76.17
2018-10-17T08:16:48.765Z,75.61
2018-10-17T08:19:17.059Z,74.86
2018-10-17T08:21:45.653Z,75.23
2018-10-17T08:24:13.917Z,74.67
2018-10-17T08:26:42.511Z,75.00
2018-10-17T08:29:10.856Z,74.46
2018-10-17T08:31:39.072Z,74.48
2018-10-17T08:34:07.338Z,74.46
2018-10-17T08:36:35.700Z,73.88
2018-10-17T08:39:05.472Z,72.73
2018-10-17T08:41:33.650Z,72.75
2018-10-17T08:44:01.896Z,73.06
2018-10-17T08:46:30.103Z,73.18
2018-10-17T08:48:58.271Z,72.86
2018-10-17T08:51:26.428Z,72.75
2018-10-17T08:53:54.659Z,73.39
2018-10-17T08:56:22.860Z,73.14
2018-10-17T08:58:51.898Z,73.44
2018-10-17T09:01:20.073Z,71.96
2018-10-17T09:03:48.246Z,72.09
2018-10-17T09:06:22.699Z,71.21
2018-10-17T09:08:50.947Z,70.90
2018-10-17T09:11:19.131Z,71.33
2018-10-17T09:13:47.336Z,70.29
2018-10-17T09:16:15.589Z,70.46
2018-10-17T09:18:43.787Z,69.95
2018-10-17T09:21:12.147Z,70.15
2018-10-17T09:23:40.386Z,69.86
2018-10-17T09:26:08.575Z,69.73
2018-10-17T09:28:37.189Z,70.13
2018-10-17T09:31:05.883Z,69.55
2018-10-17T09:33:34.796Z,69.90
2018-10-17T09:36:03.226Z,69.95
2018-10-17T09:38:32.606Z,68.79
2018-10-17T09:41:01.215Z,67.79
2018-10-17T09:43:29.457Z,68.52
2018-10-17T09:45:58.047Z,67.29
2018-10-17T09:48:26.638Z,67.97
2018-10-17T09:50:54.912Z,66.95
2018-10-17T09:53:23.095Z,67.09
2018-10-17T09:55:51.399Z,67.03
2018-10-17T09:58:20.025Z,66.67
2018-10-17T10:00:53.461Z,65.72
2018-10-17T10:03:21.828Z,65.74
2018-10-17T10:05:50.087Z,64.47
2018-10-17T10:08:18.256Z,65.33
2018-10-17T10:10:46.434Z,65.10
2018-10-17T10:13:14.614Z,63.82
2018-10-17T10:15:42.791Z,64.23
2018-10-17T10:18:11.259Z,63.62
2018-10-17T10:20:39.451Z,63.18
2018-10-17T10:23:07.778Z,62.78
2018-10-17T10:25:35.875Z,62.58
2018-10-17T10:28:04.362Z,62.97
2018-10-17T10:30:32.515Z,61.98
2018-10-17T10:33:00.692Z,62.28
2018-10-17T10:35:28.955Z,61.31
2018-10-17T10:37:57.585Z,60.85
2018-10-17T10:40:25.801Z,61.54
2018-10-17T10:42:54.036Z,59.91
2018-10-17T10:45:22.319Z,60.40
2018-10-17T10:47:50.423Z,60.10
2018-10-17T10:50:18.720Z,60.05
2018-10-17T10:52:46.840Z,59.26
2018-10-17T10:55:15.191Z,59.15
2018-10-17T10:57:43.678Z,58.32
2018-10-17T11:00:12.720Z,57.52
2018-10-17T11:02:40.912Z,56.98
2018-10-17T11:05:09.160Z,56.32
2018-10-17T11:07:37.310Z,56.24
2018-10-17T11:10:05.598Z,56.45
2018-10-17T11:12:33.891Z,55.94
2018-10-17T11:15:02.283Z,54.72
2018-10-17T11:17:30.515Z,54.58
2018-10-17T11:20:00.439Z,55.67
2018-10-17T11:22:28.775Z,56.53
2018-10-17T11:24:57.100Z,56.14
2018-10-17T11:27:25.412Z,57.66
2018-10-17T11:29:53.914Z,57.89
2018-10-17T11:32:22.124Z,56.44
2018-10-17T11:34:50.307Z,57.42
2018-10-17T11:37:18.509Z,58.19
2018-10-17T11:39:46.852Z,57.72
2018-10-17T11:42:15.044Z,58.73
2018-10-17T11:44:43.275Z,58.70
2018-10-17T11:47:11.549Z,58.66
2018-10-17T11:49:39.712Z,58.99
2018-10-17T11:52:07.915Z,59.21
2018-10-17T11:54:36.121Z,58.61
2018-10-17T11:57:04.628Z,58.98
2018-10-17T11:59:32.798Z,59.53
2018-10-17T12:02:00.956Z,59.29
2018-10-17T12:04:29.387Z,57.92
2018-10-17T12:06:57.353Z,57.88
2018-10-17T12:09:25.532Z,55.84
2018-10-17T12:11:53.749Z,57.03
2018-10-17T12:14:21.921Z,56.38
2018-10-17T12:16:50.187Z,56.76
2018-10-17T12:19:18.542Z,55.95
2018-10-17T12:21:46.637Z,55.14
2018-10-17T12:24:14.927Z,56.57
2018-10-17T12:26:43.125Z,56.55
2018-10-17T12:29:11.342Z,56.21
2018-10-17T12:31:39.541Z,57.29
2018-10-17T12:34:08.030Z,57.00
2018-10-17T12:36:36.231Z,56.53
2018-10-17T12:39:06.821Z,57.63
2018-10-17T12:41:35.066Z,57.18
2018-10-17T12:44:04.549Z,56.11
2018-10-17T12:46:32.707Z,57.91
2018-10-17T12:49:01.016Z,58.17
2018-10-17T12:51:29.203Z,55.80
2018-10-17T12:53:57.384Z,57.48
2018-10-17T12:56:25.611Z,57.74
2018-10-17T12:58:53.849Z,56.13
2018-10-17T13:01:22.051Z,56.06
2018-10-17T13:03:50.235Z,55.41
2018-10-17T13:06:18.477Z,56.30
2018-10-17T13:08:46.677Z,57.21
2018-10-17T13:11:15.032Z,55.99
2018-10-17T13:13:43.415Z,55.62
2018-10-17T13:16:11.910Z,55.70
2018-10-17T13:18:40.226Z,56.19
2018-10-17T13:21:08.783Z,55.70
2018-10-17T13:23:36.968Z,56.22
2018-10-17T13:26:06.738Z,56.03
2018-10-17T13:28:35.123Z,55.63
2018-10-17T13:31:03.976Z,55.16
2018-10-17T13:33:32.122Z,54.87
2018-10-17T13:36:00.284Z,55.09
2018-10-17T13:38:28.556Z,54.45
2018-10-17T13:40:56.806Z,55.06
2018-10-17T13:43:25.104Z,53.70
2018-10-17T13:45:53.349Z,53.53
2018-10-17T13:48:21.527Z,54.15
2018-10-17T13:50:49.882Z,53.93
2018-10-17T13:53:18.175Z,52.95
2018-10-17T13:55:46.299Z,53.50
2018-10-17T13:58:14.605Z,52.35
2018-10-17T14:00:42.750Z,53.00
2018-10-17T14:03:10.973Z,52.99
2018-10-17T14:05:39.248Z,52.25
2018-10-17T14:08:07.555Z,53.64
2018-10-17T14:10:35.763Z,53.75
2018-10-17T14:13:03.960Z,55.04
2018-10-17T14:15:32.155Z,54.90
2018-10-17T14:18:00.438Z,55.44
2018-10-17T14:20:28.731Z,54.85
2018-10-17T14:22:56.935Z,54.14
2018-10-17T14:25:25.399Z,54.30
2018-10-17T14:27:53.600Z,54.14
2018-10-17T14:30:21.827Z,55.20
2018-10-17T14:32:49.994Z,55.82
2018-10-17T14:35:18.243Z,55.56
2018-10-17T14:37:46.495Z,55.12
2018-10-17T14:40:14.766Z,55.72
2018-10-17T14:42:42.973Z,55.34
2018-10-17T14:45:11.585Z,56.03
2018-10-17T14:47:40.339Z,56.64
2018-10-17T14:50:08.599Z,55.93
2018-10-17T14:52:37.131Z,55.64
2018-10-17T14:55:05.896Z,56.00
2018-10-17T14:57:34.126Z,57.37
2018-10-17T15:00:02.380Z,56.98
2018-10-17T15:02:30.702Z,57.15
2018-10-17T15:04:58.967Z,57.91
2018-10-17T15:07:27.117Z,57.21
2018-10-17T15:09:55.336Z,57.57
2018-10-17T15:12:23.527Z,58.30
2018-10-17T15:14:51.756Z,57.86
2018-10-17T15:17:19.947Z,58.72
2018-10-17T15:19:48.126Z,59.87
2018-10-17T15:22:16.364Z,58.03
2018-10-17T15:24:44.748Z,59.14
2018-10-17T15:27:13.263Z,58.61
2018-10-17T15:29:41.464Z,59.30
2018-10-17T15:32:09.669Z,59.16
2018-10-17T15:34:37.894Z,59.36
2018-10-17T15:37:06.293Z,59.97
2018-10-17T15:39:34.387Z,60.30
2018-10-17T15:42:02.604Z,61.51
2018-10-17T15:44:30.891Z,61.48
2018-10-17T15:47:01.367Z,61.90
2018-10-17T15:49:29.748Z,62.59
2018-10-17T15:51:57.939Z,63.00
2018-10-17T15:54:26.188Z,62.06
2018-10-17T15:56:55.104Z,61.53
2018-10-17T15:59:23.770Z,61.96
2018-10-17T16:01:51.992Z,61.52
2018-10-17T16:04:20.214Z,61.71
2018-10-17T16:06:49.021Z,62.14
2018-10-17T16:09:17.262Z,63.19
2018-10-17T16:11:45.549Z,63.41
2018-10-17T16:14:13.759Z,62.60
2018-10-17T16:16:41.851Z,63.40
2018-10-17T16:19:10.151Z,62.71
2018-10-17T16:21:38.362Z,63.50
2018-10-17T16:24:06.660Z,63.26
2018-10-17T16:26:34.815Z,63.55
2018-10-17T16:29:02.975Z,63.38
2018-10-17T16:31:31.203Z,62.90
2018-10-17T16:33:59.417Z,63.41
2018-10-17T16:36:27.602Z,63.42
2018-10-17T16:38:55.747Z,63.60
2018-10-17T16:41:24.029Z,63.37
2018-10-17T16:43:52.166Z,64.21
2018-10-17T16:46:20.317Z,63.79
2018-10-17T16:48:48.498Z,64.58
2018-10-17T16:51:16.753Z,64.52
2018-10-17T16:53:44.978Z,63.73
2018-10-17T16:56:13.256Z,64.28
2018-10-17T16:58:41.536Z,64.63
2018-10-17T17:01:09.673Z,64.52
2018-10-17T17:03:37.878Z,64.72
2018-10-17T17:06:06.308Z,65.55
2018-10-17T17:08:34.499Z,65.03
2018-10-17T17:11:02.752Z,65.01
2018-10-17T17:13:30.972Z,64.85
2018-10-17T17:15:59.135Z,65.18
2018-10-17T17:18:27.311Z,65.12
2018-10-17T17:20:55.578Z,65.09
2018-10-17T17:23:24.808Z,65.15
2018-10-17T17:25:53.013Z,65.79
2018-10-17T17:28:21.232Z,66.57
2018-10-17T17:30:49.404Z,66.74
2018-10-17T17:33:17.673Z,66.29
2018-10-17T17:35:45.853Z,66.07
2018-10-17T17:38:14.047Z,66.85
2018-10-17T17:40:42.231Z,67.27
2018-10-17T17:43:10.471Z,67.40
2018-10-17T17:45:38.656Z,66.49
2018-10-17T17:48:07.275Z,66.25
2018-10-17T17:50:35.458Z,67.72
2018-10-17T17:53:03.632Z,67.30
2018-10-17T17:55:31.824Z,67.10
2018-10-17T17:58:00.106Z,66.88
2018-10-17T18:00:28.223Z,67.82
2018-10-17T18:02:56.458Z,67.85
2018-10-17T18:05:24.682Z,66.71
2018-10-17T18:07:52.834Z,67.35
2018-10-17T18:10:21.068Z,67.40
2018-10-17T18:12:49.319Z,67.78
2018-10-17T18:15:17.573Z,68.19
2018-10-17T18:17:45.810Z,68.23
2018-10-17T18:20:14.324Z,67.92
2018-10-17T18:22:42.613Z,68.16
2018-10-17T18:25:10.998Z,68.81
2018-10-17T18:27:39.893Z,67.98
2018-10-17T18:30:08.086Z,68.42
2018-10-17T18:32:36.568Z,68.78
2018-10-17T18:35:05.543Z,68.96
2018-10-17T18:37:33.756Z,68.74
2018-10-17T18:40:01.962Z,68.08
2018-10-17T18:42:30.319Z,69.07
2018-10-17T18:44:58.486Z,68.58
2018-10-17T18:47:26.712Z,69.14
2018-10-17T18:49:54.931Z,68.76
2018-10-17T18:52:23.416Z,68.84
2018-10-17T18:54:51.587Z,68.92
2018-10-17T18:57:19.808Z,69.92
2018-10-17T18:59:48.038Z,69.42
2018-10-17T19:02:16.408Z,69.64
2018-10-17T19:04:44.941Z,69.91
2018-10-17T19:07:13.220Z,69.53
2018-10-17T19:09:41.388Z,69.34
2018-10-17T19:12:09.580Z,70.00
2018-10-17T19:14:37.739Z,70.26
2018-10-17T19:17:06.117Z,69.99
2018-10-17T19:19:34.350Z,70.16
2018-10-17T19:22:02.573Z,70.26
2018-10-17T19:24:30.751Z,70.27
2018-10-17T19:26:58.949Z,69.43
2018-10-17T19:29:33.233Z,70.20
2018-10-17T19:32:02.562Z,70.00
2018-10-17T19:34:30.751Z,70.59
2018-10-17T19:36:58.928Z,70.57
2018-10-17T19:39:27.118Z,69.70
2018-10-17T19:41:55.437Z,69.67
2018-10-17T19:44:23.567Z,69.89
2018-10-17T19:46:51.772Z,70.96
2018-10-17T19:49:19.962Z,70.79
2018-10-17T19:51:48.238Z,70.70
2018-10-17T19:54:17.242Z,71.11
2018-10-17T19:56:45.456Z,71.30
2018-10-17T19:59:13.651Z,71.36
2018-10-17T20:01:41.837Z,71.33
2018-10-17T20:04:10.021Z,70.56
2018-10-17T20:06:38.218Z,70.60
2018-10-17T20:09:08.722Z,70.61
2018-10-17T20:11:36.933Z,70.85
2018-10-17T20:14:05.272Z,71.33
2018-10-17T20:16:33.435Z,71.39
2018-10-17T20:19:01.629Z,70.71
2018-10-17T20:21:29.823Z,71.72
2018-10-17T20:23:58.200Z,71.98
2018-10-17T20:26:26.458Z,71.47
2018-10-17T20:28:54.695Z,72.08
2018-10-17T20:31:22.918Z,72.00
2018-10-17T20:33:51.090Z,71.67
2018-10-17T20:36:19.411Z,72.84
2018-10-17T20:38:47.704Z,72.61
2018-10-17T20:41:15.918Z,72.12
2018-10-17T20:43:44.139Z,72.90
2018-10-17T20:46:12.312Z,72.68
2018-10-17T20:48:40.499Z,72.75
2018-10-17T20:51:08.759Z,73.38
2018-10-17T20:53:36.938Z,73.81
2018-10-17T20:56:05.245Z,73.33
2018-10-17T20:58:33.396Z,73.08
2018-10-17T21:01:01.645Z,73.68
2018-10-17T21:03:29.782Z,73.11
2018-10-17T21:05:57.984Z,73.74
2018-10-17T21:08:26.185Z,73.60
2018-10-17T21:10:54.374Z,74.47
2018-10-17T21:13:22.572Z,73.51
2018-10-17T21:15:50.748Z,73.91
2018-10-17T21:18:18.977Z,74.34
2018-10-17T21:20:47.832Z,74.62
2018-10-17T21:23:15.986Z,74.86
2018-10-17T21:25:44.310Z,74.26
2018-10-17T21:28:12.538Z,75.03
2018-10-17T21:30:40.755Z,74.05
2018-10-17T21:33:08.937Z,74.89
2018-10-17T21:35:37.099Z,74.65
2018-10-17T21:38:05.320Z,74.55
2018-10-17T21:40:33.476Z,74.37
2018-10-17T21:43:01.675Z,75.12
2018-10-17T21:45:29.845Z,74.65
2018-10-17T21:47:58.010Z,74.48
2018-10-17T21:50:26.211Z,75.12
2018-10-17T21:52:54.390Z,75.61
2018-10-17T21:55:24.159Z,75.48
2018-10-17T21:57:52.515Z,76.20
2018-10-17T22:00:21.705Z,75.73
2018-10-17T22:02:50.223Z,76.15
2018-10-17T22:05:18.683Z,76.25
2018-10-17T22:07:47.156Z,76.55
2018-10-17T22:10:15.348Z,76.63
2018-10-17T22:12:43.510Z,75.96
2018-10-17T22:15:12.279Z,76.34
2018-10-17T22:17:40.478Z,76.19
2018-10-17T22:20:08.775Z,75.78
2018-10-17T22:22:37.011Z,76.47
2018-10-17T22:25:06.037Z,76.47
2018-10-17T22:27:34.363Z,76.54
2018-10-17T22:30:02.598Z,76.80
2018-10-17T22:32:30.754Z,77.03
2018-10-17T22:34:58.902Z,76.25
2018-10-17T22:37:27.122Z,76.64
2018-10-17T22:39:55.726Z,76.38
2018-10-17T22:42:24.372Z,77.33
2018-10-17T22:44:52.677Z,77.47
2018-10-17T22:47:20.869Z,77.05
2018-10-17T22:49:49.364Z,77.15
2018-10-17T22:52:17.536Z,77.75
2018-10-17T22:54:45.719Z,77.31
2018-10-17T22:57:14.191Z,77.70
2018-10-17T22:59:42.487Z,77.34
2018-10-17T23:02:10.910Z,77.27
2018-10-17T23:04:39.095Z,77.44
2018-10-17T23:07:07.360Z,77.37
2018-10-17T23:09:36.537Z,76.86
2018-10-17T23:12:05.236Z,77.13
2018-10-17T23:14:33.656Z,77.46
2018-10-17T23:17:02.048Z,76.36
2018-10-17T23:19:30.484Z,76.94
2018-10-17T23:21:58.704Z,76.91
2018-10-17T23:24:26.863Z,77.24
2018-10-17T23:26:55.024Z,76.73
2018-10-17T23:29:23.187Z,77.68
2018-10-17T23:31:51.399Z,77.44
2018-10-17T23:34:19.572Z,77.29
2018-10-17T23:36:47.847Z,77.84
2018-10-17T23:39:16.008Z,77.65
2018-10-17T23:41:44.178Z,78.41
2018-10-17T23:44:12.396Z,78.28
2018-10-17T23:46:40.538Z,78.00
2018-10-17T23:49:08.705Z,78.05
2018-10-17T23:51:36.906Z,78.26
2018-10-17T23:54:05.174Z,78.35
2018-10-17T23:56:33.334Z,77.48
2018-10-17T23:59:01.555Z,78.06
